Time;durP1;ratioP1;P1;durP2;ratioP2;P2;SDS_P1;SDS_P2;PMS_P1;PMS_P2;Temp;Humidity;BMP_temperature;BMP_pressure;BME280_temperature;BME280_humidity;BME280_pressure;Samples;Min_cycle;Max_cycle;Signal;HPM_P1;HPM_P2
2022/06/22 00:01:58;;;;;;;8.15;4.60;;;19.90;99.90;;;;;;4991331;28;20030;-84
2022/06/22 00:04:36;;;;;;;9.88;4.68;;;19.80;99.90;;;;;;4984895;28;20370;-84
2022/06/22 00:07:15;;;;;;;7.45;4.30;;;19.80;99.80;;;;;;4983577;28;20509;-84
2022/06/22 00:09:42;;;;;;;10.25;4.63;;;19.70;99.90;;;;;;4978286;28;20036;-84
2022/06/22 00:12:27;;;;;;;8.13;4.68;;;19.70;99.80;;;;;;4974230;28;20045;-84
2022/06/22 00:14:55;;;;;;;8.95;5.53;;;19.70;99.80;;;;;;4991085;28;20018;-85
2022/06/22 00:17:34;;;;;;;10.52;5.15;;;19.60;99.90;;;;;;4989643;28;20038;-84
2022/06/22 00:20:19;;;;;;;8.27;4.90;;;19.60;99.90;;;;;;4991006;28;20037;-85
2022/06/22 00:22:58;;;;;;;10.43;5.10;;;19.60;99.90;;;;;;4990807;28;21287;-84
2022/06/22 00:25:36;;;;;;;7.50;4.70;;;19.50;99.90;;;;;;4990965;28;20019;-84
2022/06/22 00:28:24;;;;;;;9.82;5.10;;;19.50;99.90;;;;;;4989523;28;20167;-84
2022/06/22 00:30:56;;;;;;;8.77;5.65;;;19.50;99.90;;;;;;5054750;28;20021;-84
2022/06/22 00:33:23;;;;;;;9.38;4.82;;;19.40;99.90;;;;;;4957917;28;20030;-84
2022/06/22 00:35:56;;;;;;;10.32;5.55;;;19.40;99.90;;;;;;4998571;28;20079;-84
2022/06/22 00:38:30;;;;;;;8.30;4.90;;;19.40;99.90;;;;;;5005597;28;20113;-84
2022/06/22 00:41:02;;;;;;;8.13;5.30;;;19.30;99.90;;;;;;4990899;28;20071;-83
2022/06/22 00:43:31;;;;;;;11.93;5.97;;;19.30;99.90;;;;;;4989358;28;20015;-84
2022/06/22 00:45:59;;;;;;;10.20;4.95;;;19.30;99.90;;;;;;4978969;28;20023;-84
2022/06/22 00:48:34;;;;;;;10.52;5.60;;;19.20;99.90;;;;;;5071516;28;20030;-83
2022/06/22 00:51:07;;;;;;;9.77;5.22;;;19.20;99.90;;;;;;4989468;28;20486;-84
2022/06/22 00:54:06;;;;;;;7.85;4.53;;;19.20;99.90;;;;;;4990677;28;20075;-83
2022/06/22 00:56:55;;;;;;;8.45;5.40;;;19.10;99.90;;;;;;5013656;28;20050;-83
2022/06/22 00:59:52;;;;;;;10.73;5.35;;;19.10;99.90;;;;;;4994708;28;20091;-84
2022/06/22 01:02:37;;;;;;;9.00;5.30;;;19.00;99.90;;;;;;5005258;28;20381;-83
2022/06/22 01:05:22;;;;;;;10.27;5.35;;;19.00;99.90;;;;;;4989221;28;20049;-86
2022/06/22 01:08:05;;;;;;;10.30;5.15;;;18.90;99.90;;;;;;4990686;28;20026;-84
2022/06/22 01:10:51;;;;;;;9.95;5.45;;;18.90;99.90;;;;;;4991131;28;20022;-84
2022/06/22 01:13:43;;;;;;;8.65;5.28;;;18.80;99.90;;;;;;5007923;28;20088;-84
2022/06/22 01:16:36;;;;;;;9.88;5.85;;;18.80;99.90;;;;;;4993802;28;20050;-84
2022/06/22 01:19:21;;;;;;;9.98;5.22;;;18.80;99.90;;;;;;5008965;28;20090;-84
2022/06/22 01:22:01;;;;;;;10.52;5.28;;;18.70;99.90;;;;;;4994003;28;20047;-85
2022/06/22 01:24:37;;;;;;;10.55;5.25;;;18.70;99.90;;;;;;4993216;28;20060;-84
2022/06/22 01:27:28;;;;;;;9.65;5.38;;;18.70;99.90;;;;;;4993171;28;20038;-84
2022/06/22 01:29:56;;;;;;;10.70;5.25;;;18.60;99.90;;;;;;5008980;28;20038;-84
2022/06/22 01:32:31;;;;;;;8.23;4.80;;;18.60;99.90;;;;;;4993526;28;20018;-84
2022/06/22 01:35:01;;;;;;;8.40;5.13;;;18.60;99.90;;;;;;4987390;28;20022;-84
2022/06/22 01:37:29;;;;;;;10.13;5.65;;;18.60;99.90;;;;;;4992376;28;20027;-84
2022/06/22 01:40:13;;;;;;;9.32;5.65;;;18.60;99.90;;;;;;5008755;28;20030;-85
2022/06/22 01:43:01;;;;;;;10.18;5.72;;;18.50;99.90;;;;;;4989076;28;20564;-84
2022/06/22 01:45:57;;;;;;;11.27;6.28;;;18.50;99.90;;;;;;4988872;28;20038;-85
2022/06/22 01:48:32;;;;;;;10.70;6.00;;;18.50;99.90;;;;;;4984998;28;20041;-84
2022/06/22 01:51:07;;;;;;;8.85;5.60;;;18.40;99.90;;;;;;4988956;28;20023;-84
2022/06/22 01:53:44;;;;;;;13.60;6.05;;;18.40;99.90;;;;;;4984740;28;20022;-84
2022/06/22 01:56:39;;;;;;;11.80;5.72;;;18.40;99.90;;;;;;4992056;28;20022;-88
2022/06/22 01:59:23;;;;;;;9.60;5.93;;;18.40;99.90;;;;;;5007998;28;20023;-84
2022/06/22 02:02:18;;;;;;;10.23;5.90;;;18.30;99.90;;;;;;5077883;28;20034;-84
2022/06/22 02:04:43;;;;;;;9.13;5.82;;;18.30;99.90;;;;;;4993184;28;20080;-85
2022/06/22 02:07:44;;;;;;;8.52;6.20;;;18.30;99.90;;;;;;4988700;28;20398;-85
2022/06/22 02:10:28;;;;;;;9.60;5.80;;;18.30;99.90;;;;;;4997421;28;20021;-85
2022/06/22 02:13:20;;;;;;;11.52;6.30;;;18.20;99.90;;;;;;5008081;28;20458;-84
2022/06/22 02:15:52;;;;;;;11.52;6.47;;;18.20;99.90;;;;;;4991913;28;20023;-85
2022/06/22 02:18:35;;;;;;;12.00;6.35;;;18.20;99.90;;;;;;4992837;28;20030;-84
2022/06/22 02:21:15;;;;;;;13.45;7.43;;;18.10;99.90;;;;;;4991543;28;20027;-86
2022/06/22 02:23:41;;;;;;;10.77;6.43;;;18.10;99.90;;;;;;4988492;28;20454;-84
2022/06/22 02:26:46;;;;;;;8.75;5.97;;;18.10;99.90;;;;;;4972123;28;20114;-85
2022/06/22 02:29:15;;;;;;;9.40;6.38;;;18.10;99.90;;;;;;5012950;28;20050;-84
2022/06/22 02:31:41;;;;;;;9.65;7.07;;;18.00;99.90;;;;;;4990655;28;20465;-84
2022/06/22 02:34:07;;;;;;;9.70;5.93;;;18.00;99.90;;;;;;4990881;28;20041;-85
2022/06/22 02:36:38;;;;;;;10.27;6.38;;;18.00;99.90;;;;;;4990531;28;20026;-84
2022/06/22 02:39:06;;;;;;;9.80;6.90;;;18.00;99.90;;;;;;4991415;28;20033;-85
2022/06/22 02:44:31;;;;;;;12.63;6.63;;;17.90;99.90;;;;;;4991801;28;20041;-84
2022/06/22 02:47:10;;;;;;;10.98;7.60;;;17.90;99.90;;;;;;4990855;28;20023;-84
2022/06/22 02:49:39;;;;;;;11.55;7.50;;;17.90;99.90;;;;;;4992452;28;20038;-84
2022/06/22 02:52:08;;;;;;;12.15;7.70;;;17.80;99.90;;;;;;4992592;28;20117;-84
2022/06/22 02:54:42;;;;;;;9.20;7.32;;;17.80;99.90;;;;;;4990082;28;20023;-84
2022/06/22 02:57:34;;;;;;;12.35;7.80;;;17.80;99.90;;;;;;4990331;28;20057;-84
2022/06/22 03:00:00;;;;;;;12.60;7.95;;;17.80;99.90;;;;;;4996100;28;20030;-84
2022/06/22 03:02:26;;;;;;;11.48;7.18;;;17.70;99.90;;;;;;4992479;28;20458;-84
2022/06/22 03:04:54;;;;;;;10.90;7.00;;;17.70;99.90;;;;;;4992359;28;20027;-84
2022/06/22 03:07:22;;;;;;;11.95;7.45;;;17.70;99.90;;;;;;4987441;28;20043;-85
2022/06/22 03:09:49;;;;;;;10.48;7.50;;;17.70;99.90;;;;;;4983273;28;20033;-84
2022/06/22 03:12:15;;;;;;;11.85;7.40;;;17.60;99.90;;;;;;4991517;28;20030;-84
2022/06/22 03:15:07;;;;;;;10.27;7.38;;;17.60;99.90;;;;;;4974983;28;20033;-84
2022/06/22 03:17:38;;;;;;;13.40;7.45;;;17.60;99.90;;;;;;4976841;28;20495;-84
2022/06/22 03:20:19;;;;;;;11.30;7.43;;;17.60;99.90;;;;;;4994368;28;20033;-84
2022/06/22 03:22:52;;;;;;;9.73;7.35;;;17.60;99.90;;;;;;5042969;28;20016;-85
2022/06/22 03:25:37;;;;;;;10.27;7.47;;;17.50;99.90;;;;;;5044096;28;20078;-87
2022/06/22 03:28:08;;;;;;;12.50;7.38;;;17.50;99.90;;;;;;5094034;28;20017;-84
2022/06/22 03:30:43;;;;;;;9.82;7.10;;;17.50;99.90;;;;;;5016216;28;20057;-84
2022/06/22 03:33:16;;;;;;;10.77;7.18;;;17.50;99.90;;;;;;5011553;28;20011;-84
2022/06/22 03:35:47;;;;;;;9.82;7.43;;;17.50;99.90;;;;;;5009345;28;20036;-85
2022/06/22 03:38:32;;;;;;;10.82;7.20;;;17.50;99.90;;;;;;5010105;28;20037;-84
2022/06/22 03:41:07;;;;;;;13.82;7.88;;;17.40;99.90;;;;;;4988095;28;20040;-84
2022/06/22 03:43:49;;;;;;;11.57;7.78;;;17.40;99.90;;;;;;5049509;28;20021;-84
2022/06/22 03:46:41;;;;;;;11.23;8.07;;;17.40;99.90;;;;;;4990973;28;20109;-84
2022/06/22 03:49:17;;;;;;;11.73;7.95;;;17.40;99.90;;;;;;5004658;28;20046;-84
2022/06/22 03:52:17;;;;;;;12.05;8.00;;;17.40;99.90;;;;;;4990395;28;20453;-84
2022/06/22 03:54:52;;;;;;;16.42;8.35;;;17.30;99.90;;;;;;5022426;28;20050;-84
2022/06/22 03:57:22;;;;;;;12.02;7.80;;;17.30;99.90;;;;;;5027485;28;20048;-84
2022/06/22 03:59:48;;;;;;;12.10;8.27;;;17.30;99.90;;;;;;5073370;28;20029;-85
2022/06/22 04:02:17;;;;;;;11.32;8.38;;;17.20;99.90;;;;;;5009249;28;20033;-85
2022/06/22 04:04:43;;;;;;;12.75;8.35;;;17.20;99.90;;;;;;4970383;28;20095;-84
2022/06/22 04:07:13;;;;;;;11.48;8.27;;;17.20;99.90;;;;;;5000334;28;20054;-84
2022/06/22 04:09:43;;;;;;;12.25;8.25;;;17.20;99.90;;;;;;4976357;28;20083;-84
2022/06/22 04:12:18;;;;;;;12.35;8.23;;;17.20;99.90;;;;;;5041355;28;20475;-84
2022/06/22 04:15:09;;;;;;;12.38;7.72;;;17.20;99.90;;;;;;5050786;28;20079;-85
2022/06/22 04:17:48;;;;;;;11.05;8.00;;;17.10;99.90;;;;;;4977660;28;20378;-85
2022/06/22 04:20:49;;;;;;;14.43;8.48;;;17.10;99.90;;;;;;5026795;28;20051;-84
2022/06/22 04:23:13;;;;;;;14.38;8.27;;;17.10;99.90;;;;;;5015218;28;20388;-84
2022/06/22 04:25:40;;;;;;;10.93;8.23;;;17.10;99.90;;;;;;5040729;28;20035;-84
2022/06/22 04:28:10;;;;;;;12.63;8.30;;;17.10;99.90;;;;;;5005053;28;20079;-83
2022/06/22 04:30:43;;;;;;;12.18;7.85;;;17.10;99.90;;;;;;4986429;28;20019;-85
2022/06/22 04:33:11;;;;;;;12.98;7.95;;;17.10;99.90;;;;;;5065885;28;20366;-84
2022/06/22 04:35:43;;;;;;;11.88;8.00;;;17.10;99.90;;;;;;4989414;28;20033;-84
2022/06/22 04:38:15;;;;;;;13.75;8.40;;;17.10;99.90;;;;;;5000781;28;20041;-82
2022/06/22 04:41:00;;;;;;;10.73;8.20;;;17.10;99.90;;;;;;5033305;28;20033;-85
2022/06/22 04:43:27;;;;;;;9.73;7.75;;;17.10;99.90;;;;;;4986371;28;20416;-84
2022/06/22 04:45:53;;;;;;;13.65;8.07;;;17.10;99.90;;;;;;5023511;28;20017;-83
2022/06/22 04:48:29;;;;;;;13.90;8.10;;;17.10;99.90;;;;;;5079002;28;20051;-83
2022/06/22 04:51:01;;;;;;;10.60;7.63;;;17.10;99.90;;;;;;4991085;28;20030;-83
2022/06/22 04:53:31;;;;;;;9.02;7.32;;;17.10;99.90;;;;;;4989374;28;20060;-83
2022/06/22 04:56:01;;;;;;;9.60;7.60;;;17.10;99.90;;;;;;4990681;28;20182;-84
2022/06/22 04:58:39;;;;;;;14.10;7.87;;;17.10;99.90;;;;;;5005416;28;20029;-84
2022/06/22 05:01:06;;;;;;;14.18;8.00;;;17.10;99.90;;;;;;4989353;28;20064;-84
2022/06/22 05:03:33;;;;;;;9.77;7.38;;;17.10;99.90;;;;;;4986939;28;20064;-86
2022/06/22 05:06:06;;;;;;;9.52;7.13;;;17.10;99.90;;;;;;4985887;28;20051;-83
2022/06/22 05:08:38;;;;;;;9.40;7.63;;;17.10;99.90;;;;;;4984456;28;20109;-85
2022/06/22 05:11:12;;;;;;;10.70;7.60;;;17.10;99.90;;;;;;4983189;28;20183;-83
2022/06/22 05:13:50;;;;;;;12.93;7.50;;;17.10;99.90;;;;;;4999682;28;20027;-84
2022/06/22 05:16:20;;;;;;;13.18;7.80;;;17.10;99.90;;;;;;4990193;28;20027;-85
2022/06/22 05:18:48;;;;;;;9.73;6.93;;;17.20;99.90;;;;;;4987276;28;20037;-84
2022/06/22 05:21:34;;;;;;;12.43;7.78;;;17.20;99.90;;;;;;4990158;28;20503;-84
2022/06/22 05:24:05;;;;;;;9.52;7.25;;;17.20;99.90;;;;;;4992177;28;20092;-85
2022/06/22 05:26:33;;;;;;;8.77;6.63;;;17.20;99.90;;;;;;4989155;28;20377;-85
2022/06/22 05:29:07;;;;;;;9.38;6.40;;;17.20;99.90;;;;;;4988965;28;20034;-86
2022/06/22 05:31:46;;;;;;;9.77;6.88;;;17.20;99.90;;;;;;4992810;28;20029;-86
2022/06/22 05:34:40;;;;;;;10.60;7.05;;;17.30;99.90;;;;;;4988729;28;20115;-84
2022/06/22 05:37:08;;;;;;;10.30;6.43;;;17.30;99.90;;;;;;5006313;28;20035;-85
2022/06/22 05:39:35;;;;;;;10.32;6.45;;;17.30;99.90;;;;;;4988371;28;20030;-85
2022/06/22 05:42:02;;;;;;;9.75;6.63;;;17.40;99.90;;;;;;4989496;28;20130;-84
2022/06/22 05:44:28;;;;;;;8.18;6.32;;;17.40;99.90;;;;;;4987414;28;20026;-85
2022/06/22 05:46:56;;;;;;;11.38;6.82;;;17.40;99.90;;;;;;4985207;28;20027;-85
2022/06/22 05:49:42;;;;;;;7.07;5.97;;;17.40;99.90;;;;;;4989547;28;20061;-85
2022/06/22 05:52:29;;;;;;;9.10;6.25;;;17.40;99.90;;;;;;4989676;28;20044;-85
2022/06/22 05:55:11;;;;;;;8.60;5.85;;;17.50;99.90;;;;;;4985314;28;20771;-85
2022/06/22 05:58:04;;;;;;;10.27;6.07;;;17.50;99.90;;;;;;4996293;28;20490;-86
2022/06/22 06:00:47;;;;;;;9.65;6.32;;;17.50;99.90;;;;;;4992152;28;20019;-84
2022/06/22 06:03:30;;;;;;;9.35;6.10;;;17.60;99.90;;;;;;4992041;28;20031;-85
2022/06/22 06:06:19;;;;;;;10.50;6.22;;;17.60;99.90;;;;;;4991629;28;20133;-85
2022/06/22 06:08:50;;;;;;;8.60;5.32;;;17.70;99.90;;;;;;5076480;28;20065;-85
2022/06/22 06:11:20;;;;;;;8.77;5.68;;;17.70;99.90;;;;;;4988878;28;20072;-85
2022/06/22 06:13:58;;;;;;;8.77;5.88;;;17.70;99.90;;;;;;5077053;28;20037;-88
2022/06/22 06:16:40;;;;;;;8.23;5.75;;;17.80;99.90;;;;;;4993099;28;20099;-88
2022/06/22 06:19:15;;;;;;;10.43;6.22;;;17.80;99.90;;;;;;4990473;28;20354;-88
2022/06/22 06:21:43;;;;;;;8.68;5.80;;;17.90;99.90;;;;;;4994212;28;20064;-87
2022/06/22 06:24:23;;;;;;;7.93;5.80;;;17.90;99.90;;;;;;4992431;28;20045;-88
2022/06/22 06:30:00;;;;;;;8.25;5.95;;;18.00;99.90;;;;;;4985109;28;20622;-88
2022/06/22 06:33:16;;;;;;;7.82;5.60;;;18.10;99.90;;;;;;4999146;28;20494;-87
2022/06/22 06:35:49;;;;;;;10.20;5.53;;;18.10;99.90;;;;;;4993754;28;20033;-88
2022/06/22 06:38:27;;;;;;;8.30;6.13;;;18.20;99.90;;;;;;5011449;28;20091;-88
2022/06/22 06:41:01;;;;;;;8.60;6.00;;;18.20;99.90;;;;;;4991596;28;20030;-85
2022/06/22 06:43:52;;;;;;;10.98;6.38;;;18.30;99.90;;;;;;4986730;28;20018;-85
2022/06/22 06:46:33;;;;;;;10.05;5.47;;;18.30;99.90;;;;;;4988699;28;20027;-85
2022/06/22 06:49:32;;;;;;;8.95;5.70;;;18.40;99.90;;;;;;5001170;28;20026;-85
2022/06/22 06:52:27;;;;;;;9.02;5.05;;;18.40;99.90;;;;;;4989934;28;20517;-85
2022/06/22 06:55:01;;;;;;;7.28;4.40;;;18.50;99.90;;;;;;5004386;28;20064;-86
2022/06/22 06:57:29;;;;;;;8.68;5.00;;;18.50;99.90;;;;;;4991528;28;20095;-86
2022/06/22 07:00:00;;;;;;;9.05;4.43;;;18.60;99.90;;;;;;4991263;28;20034;-86
2022/06/22 07:02:36;;;;;;;8.20;4.80;;;18.60;99.90;;;;;;4992384;28;20113;-86
2022/06/22 07:05:05;;;;;;;8.98;4.40;;;18.70;99.90;;;;;;5010053;28;20087;-87
2022/06/22 07:07:56;;;;;;;7.60;4.35;;;18.80;99.90;;;;;;5012568;28;20106;-88
2022/06/22 07:10:34;;;;;;;6.90;4.88;;;18.90;99.90;;;;;;5016501;28;20083;-86
2022/06/22 07:13:05;;;;;;;6.00;3.75;;;18.90;99.90;;;;;;5014943;28;20073;-87
2022/06/22 07:15:35;;;;;;;10.52;4.22;;;19.00;99.90;;;;;;5014609;28;20066;-86
2022/06/22 07:18:14;;;;;;;6.47;3.87;;;19.10;99.90;;;;;;5014797;28;20074;-87
2022/06/22 07:20:45;;;;;;;7.90;3.90;;;19.20;99.90;;;;;;5012523;28;20037;-86
2022/06/22 07:23:49;;;;;;;7.53;3.78;;;19.20;99.90;;;;;;4988876;28;20527;-87
2022/06/22 07:26:30;;;;;;;7.00;3.53;;;19.30;99.90;;;;;;4987973;28;20441;-86
2022/06/22 07:29:02;;;;;;;5.30;3.70;;;19.40;99.90;;;;;;5007299;28;20104;-86
2022/06/22 07:31:36;;;;;;;6.95;3.70;;;19.50;99.90;;;;;;4991321;28;20023;-87
2022/06/22 07:34:15;;;;;;;7.72;3.60;;;19.50;99.90;;;;;;4990758;28;20024;-86
2022/06/22 07:36:47;;;;;;;5.55;3.03;;;19.60;99.90;;;;;;4991548;28;20029;-86
2022/06/22 07:39:20;;;;;;;5.53;3.17;;;19.70;99.90;;;;;;5006768;28;20505;-87
2022/06/22 07:41:45;;;;;;;6.78;3.33;;;19.80;99.90;;;;;;4987127;28;20035;-87
2022/06/22 07:44:19;;;;;;;6.20;3.40;;;19.90;99.90;;;;;;4989904;28;20402;-86
2022/06/22 07:46:53;;;;;;;5.90;2.97;;;20.00;99.90;;;;;;5007018;28;20489;-87
2022/06/22 07:49:27;;;;;;;4.30;2.90;;;20.10;99.90;;;;;;4991739;28;20034;-86
2022/06/22 07:51:59;;;;;;;4.60;2.40;;;20.20;99.90;;;;;;4991357;28;20023;-86
2022/06/22 07:54:41;;;;;;;6.00;2.97;;;20.20;99.90;;;;;;4991379;28;20106;-87
2022/06/22 07:57:21;;;;;;;4.78;2.42;;;20.40;99.90;;;;;;4990052;28;20476;-87
2022/06/22 08:00:01;;;;;;;6.93;2.47;;;20.40;99.90;;;;;;4987259;28;20470;-86
2022/06/22 08:02:46;;;;;;;4.35;2.20;;;20.60;99.90;;;;;;5006404;28;20346;-86
2022/06/22 08:05:16;;;;;;;4.05;2.42;;;20.60;99.60;;;;;;4990889;28;20033;-87
2022/06/22 08:07:45;;;;;;;2.93;1.70;;;20.70;99.50;;;;;;5006544;28;20030;-86
2022/06/22 08:10:25;;;;;;;5.22;2.63;;;20.80;99.70;;;;;;4989860;28;20292;-87
2022/06/22 08:13:03;;;;;;;2.72;1.85;;;20.90;99.20;;;;;;4977817;28;20030;-87
2022/06/22 08:15:38;;;;;;;4.72;1.85;;;21.00;98.90;;;;;;5006308;28;20110;-87
2022/06/22 08:18:05;;;;;;;6.43;2.03;;;21.10;98.80;;;;;;4989314;28;20466;-86
2022/06/22 08:20:34;;;;;;;4.13;1.95;;;21.20;98.40;;;;;;4976434;28;20110;-86
2022/06/22 08:23:04;;;;;;;4.40;2.10;;;21.30;98.30;;;;;;4990020;28;20014;-87
2022/06/22 08:25:32;;;;;;;5.68;1.80;;;21.40;97.70;;;;;;4991229;28;20025;-88
2022/06/22 08:27:59;;;;;;;3.78;1.85;;;21.50;97.90;;;;;;4992212;28;20484;-87
2022/06/22 08:30:25;;;;;;;3.83;1.83;;;21.60;97.60;;;;;;4989819;28;20034;-87
2022/06/22 08:33:03;;;;;;;3.97;1.42;;;21.70;97.50;;;;;;4970265;28;20114;-86
2022/06/22 08:35:42;;;;;;;4.72;1.88;;;21.70;97.40;;;;;;4988576;28;20054;-87
2022/06/22 08:38:22;;;;;;;3.15;1.58;;;21.80;97.20;;;;;;4989388;28;20026;-87
2022/06/22 08:41:09;;;;;;;4.43;1.80;;;21.90;97.10;;;;;;4989739;28;20027;-86
2022/06/22 08:44:19;;;;;;;4.10;1.83;;;22.00;96.90;;;;;;5002028;28;20026;-87
2022/06/22 08:47:14;;;;;;;3.55;1.27;;;22.10;96.50;;;;;;4949891;28;20028;-87
2022/06/22 08:49:57;;;;;;;4.72;1.85;;;22.20;96.10;;;;;;4985811;28;20037;-87
2022/06/22 08:52:35;;;;;;;3.75;1.80;;;22.30;95.90;;;;;;4989621;28;20049;-87
2022/06/22 08:55:12;;;;;;;14.85;1.88;;;22.30;95.70;;;;;;4987656;28;20081;-85
2022/06/22 08:57:56;;;;;;;3.88;1.73;;;22.40;95.40;;;;;;4981525;28;20099;-87
2022/06/22 09:00:48;;;;;;;5.40;1.80;;;22.50;94.90;;;;;;4990522;28;20038;-89
2022/06/22 09:03:29;;;;;;;4.35;1.60;;;22.60;94.50;;;;;;4988923;28;20030;-91
2022/06/22 09:06:18;;;;;;;5.30;1.85;;;22.60;94.30;;;;;;4990497;28;20057;-88
2022/06/22 09:08:53;;;;;;;3.83;1.65;;;22.70;93.80;;;;;;4991586;28;20042;-89
2022/06/22 09:11:27;;;;;;;5.55;1.83;;;22.80;93.60;;;;;;4989136;28;20164;-88
2022/06/22 09:13:55;;;;;;;3.60;1.60;;;22.90;93.10;;;;;;4990259;28;20060;-87
2022/06/22 09:16:29;;;;;;;5.28;1.75;;;22.90;92.30;;;;;;4989754;28;20105;-85
2022/06/22 09:19:07;;;;;;;1.98;1.38;;;23.00;91.90;;;;;;4989880;28;20355;-87
2022/06/22 09:22:07;;;;;;;6.45;1.45;;;23.10;92.00;;;;;;4976295;28;20023;-86
2022/06/22 09:24:58;;;;;;;2.50;1.15;;;23.10;92.10;;;;;;5070167;28;20018;-86
2022/06/22 09:27:35;;;;;;;4.22;1.40;;;23.20;92.00;;;;;;4999722;28;20038;-86
2022/06/22 09:30:34;;;;;;;2.95;1.40;;;23.30;91.60;;;;;;4991438;28;20015;-87
2022/06/22 09:33:03;;;;;;;3.78;1.23;;;23.40;91.00;;;;;;5011491;28;20054;-87
2022/06/22 09:35:59;;;;;;;4.72;1.33;;;23.50;90.60;;;;;;4991637;28;20355;-86
2022/06/22 09:39:12;;;;;;;2.90;1.27;;;23.50;90.50;;;;;;4998239;28;20034;-86
2022/06/22 09:41:56;;;;;;;6.40;1.30;;;23.60;90.40;;;;;;5040266;28;20486;-86
2022/06/22 09:44:34;;;;;;;4.60;1.33;;;23.70;90.00;;;;;;5006375;28;20023;-86
2022/06/22 09:47:42;;;;;;;4.32;1.73;;;23.80;89.60;;;;;;4992394;28;20025;-87
2022/06/22 09:50:10;;;;;;;2.88;1.23;;;23.80;88.60;;;;;;5009729;28;20021;-86
2022/06/22 09:52:58;;;;;;;3.75;1.08;;;23.90;87.50;;;;;;4993055;28;20062;-86
2022/06/22 09:56:47;;;;;;;3.45;1.00;;;23.90;86.40;;;;;;4985856;28;20072;-86
2022/06/22 09:59:09;;;;;;;3.22;1.08;;;24.00;85.20;;;;;;5009778;28;20142;-85
2022/06/22 10:01:53;;;;;;;11.85;1.85;;;24.10;84.30;;;;;;4993479;28;20486;-85
2022/06/22 10:04:31;;;;;;;3.17;1.10;;;24.20;83.00;;;;;;4991076;28;20121;-85
2022/06/22 10:07:05;;;;;;;5.40;1.20;;;24.20;82.50;;;;;;4988873;28;20046;-85
2022/06/22 10:09:52;;;;;;;2.60;1.10;;;24.30;82.50;;;;;;4990567;28;20027;-85
2022/06/22 10:13:05;;;;;;;2.25;0.93;;;24.30;82.40;;;;;;4991540;28;20026;-85
2022/06/22 10:15:49;;;;;;;2.42;1.08;;;24.40;81.80;;;;;;4982744;28;20027;-85
2022/06/22 10:18:15;;;;;;;3.25;1.05;;;24.50;80.00;;;;;;4992504;28;20529;-85
2022/06/22 10:20:49;;;;;;;3.05;1.30;;;24.50;78.70;;;;;;4991982;28;20125;-84
2022/06/22 10:23:38;;;;;;;3.05;1.35;;;24.60;78.30;;;;;;4991814;28;20389;-84
2022/06/22 10:26:57;;;;;;;3.10;1.30;;;24.60;76.80;;;;;;4991999;28;20034;-85
2022/06/22 10:29:46;;;;;;;4.03;1.15;;;24.60;76.80;;;;;;5045986;28;20473;-84
2022/06/22 10:32:29;;;;;;;3.30;1.30;;;24.70;76.70;;;;;;5024425;28;20029;-85
2022/06/22 10:35:05;;;;;;;2.67;1.00;;;24.80;76.10;;;;;;5002753;28;20039;-84
2022/06/22 10:37:52;;;;;;;2.40;0.98;;;24.80;75.00;;;;;;4991354;28;20475;-84
2022/06/22 10:46:46;;;;;;;2.70;1.13;;;25.00;73.10;;;;;;4995462;28;20087;-84
2022/06/22 10:49:55;;;;;;;3.17;1.17;;;25.00;72.60;;;;;;5022611;28;20018;-83
2022/06/22 10:52:35;;;;;;;2.63;1.10;;;25.10;71.60;;;;;;5015114;28;20064;-84
2022/06/22 10:55:04;;;;;;;;;;;25.10;69.70;;;;;;5026777;28;20034;-84
2022/06/22 10:57:29;;;;;;;3.03;1.05;;;25.10;69.20;;;;;;5009625;28;19906;-83
2022/06/22 11:00:17;;;;;;;4.07;1.30;;;25.20;69.10;;;;;;5008114;28;20038;-85
2022/06/22 11:02:54;;;;;;;3.88;1.42;;;25.20;68.40;;;;;;5015452;28;20042;-84
2022/06/22 11:05:50;;;;;;;3.00;1.10;;;25.30;67.90;;;;;;5011733;28;20055;-82
2022/06/22 11:08:18;;;;;;;1.95;0.93;;;25.30;67.70;;;;;;4993549;28;20545;-85
2022/06/22 11:11:22;;;;;;;4.18;1.33;;;25.40;67.80;;;;;;5009714;28;20072;-84
2022/06/22 11:14:18;;;;;;;2.15;1.13;;;25.50;68.20;;;;;;4986814;28;20023;-87
2022/06/22 11:17:08;;;;;;;4.50;1.40;;;25.50;68.10;;;;;;5004732;28;20146;-87
2022/06/22 11:19:54;;;;;;;5.93;1.30;;;25.60;68.40;;;;;;4985021;28;20029;-87
2022/06/22 11:22:24;;;;;;;3.03;1.15;;;25.60;68.20;;;;;;5015313;28;20450;-86
2022/06/22 11:25:10;;;;;;;1.95;1.08;;;25.60;68.50;;;;;;5002086;28;20019;-86
2022/06/22 11:30:51;;;;;;;2.72;1.45;;;25.80;68.10;;;;;;4991264;28;20041;-85
2022/06/22 11:33:17;;;;;;;;;;;25.80;68.10;;;;;;5025997;28;20058;-87
2022/06/22 11:36:07;;;;;;;2.45;1.13;;;25.90;68.30;;;;;;4990156;28;19906;-86
2022/06/22 11:39:01;;;;;;;3.08;1.20;;;25.90;67.40;;;;;;4992181;28;20377;-85
2022/06/22 11:41:48;;;;;;;2.45;1.50;;;26.00;67.30;;;;;;4994753;28;20056;-86
2022/06/22 11:47:41;;;;;;;3.63;1.10;;;26.10;66.00;;;;;;4982980;28;20038;-85
2022/06/22 11:50:47;;;;;;;2.85;1.33;;;26.20;65.90;;;;;;4990097;28;20023;-85
2022/06/22 11:53:39;;;;;;;2.28;1.15;;;26.20;64.60;;;;;;4977394;28;20520;-84
2022/06/22 11:56:24;;;;;;;4.55;1.67;;;26.30;64.80;;;;;;4989123;28;20050;-86
2022/06/22 11:59:12;;;;;;;2.47;1.17;;;26.40;64.20;;;;;;4987065;28;20023;-85
2022/06/22 12:01:59;;;;;;;2.85;1.33;;;26.40;61.50;;;;;;4984189;28;20037;-86
2022/06/22 12:04:52;;;;;;;1.65;1.00;;;26.50;60.20;;;;;;4989456;28;20031;-86
2022/06/22 12:07:26;;;;;;;1.17;0.90;;;26.50;59.60;;;;;;4989338;28;20050;-86
2022/06/22 12:10:42;;;;;;;3.42;1.20;;;26.60;59.10;;;;;;4991242;28;20034;-86
2022/06/22 12:13:26;;;;;;;3.65;1.30;;;26.70;60.20;;;;;;5009507;28;20042;-86
2022/06/22 12:16:24;;;;;;;1.58;1.00;;;26.70;59.90;;;;;;4989933;28;20095;-86
2022/06/22 12:19:15;;;;;;;0.93;0.73;;;26.70;58.90;;;;;;4987687;28;20023;-86
2022/06/22 12:21:50;;;;;;;3.45;1.48;;;26.80;58.00;;;;;;4989613;28;20023;-86
2022/06/22 12:24:38;;;;;;;1.92;1.40;;;26.80;57.00;;;;;;4988938;28;20030;-85
2022/06/22 12:27:12;;;;;;;5.65;1.30;;;26.80;56.80;;;;;;4986858;28;20029;-86
2022/06/22 12:29:46;;;;;;;2.15;1.20;;;26.90;57.20;;;;;;4989376;28;20038;-86
2022/06/22 12:32:19;;;;;;;4.50;1.10;;;27.00;56.90;;;;;;4986181;28;20356;-86
2022/06/22 12:34:49;;;;;;;2.70;1.27;;;27.00;56.90;;;;;;4986112;28;20117;-87
2022/06/22 12:37:25;;;;;;;4.03;1.80;;;27.10;57.30;;;;;;4990944;28;20033;-86
2022/06/22 12:40:11;;;;;;;2.72;1.10;;;27.20;56.60;;;;;;4986831;28;20023;-86
2022/06/22 12:43:00;;;;;;;3.00;1.23;;;27.20;56.00;;;;;;4994804;28;20043;-86
2022/06/22 12:45:52;;;;;;;1.83;1.05;;;27.20;56.60;;;;;;4990659;28;20533;-86
2022/06/22 12:48:18;;;;;;;2.30;1.08;;;27.30;56.20;;;;;;5024730;28;20029;-86
2022/06/22 12:50:54;;;;;;;3.10;1.10;;;27.40;55.30;;;;;;5071841;28;20043;-87
2022/06/22 12:53:32;;;;;;;1.92;1.00;;;27.40;54.60;;;;;;4985734;28;20027;-86
2022/06/22 12:56:15;;;;;;;4.13;1.25;;;27.50;54.40;;;;;;4991626;28;20454;-86
2022/06/22 12:58:49;;;;;;;1.85;1.20;;;27.50;54.30;;;;;;5028167;28;20030;-86
2022/06/22 13:01:15;;;;;;;4.22;1.88;;;27.60;53.80;;;;;;5002420;28;20549;-88
2022/06/22 13:03:48;;;;;;;1.80;1.02;;;27.60;53.40;;;;;;5005448;28;20148;-86
2022/06/22 13:06:14;;;;;;;2.55;1.20;;;27.70;53.60;;;;;;4990269;28;20069;-86
2022/06/22 13:08:41;;;;;;;3.67;1.33;;;27.70;53.50;;;;;;4989705;28;20031;-86
2022/06/22 13:11:15;;;;;;;2.65;1.10;;;27.80;53.50;;;;;;5002352;28;20042;-87
2022/06/22 13:13:44;;;;;;;1.50;1.00;;;27.80;52.30;;;;;;4992637;28;20022;-86
2022/06/22 13:16:36;;;;;;;3.08;1.10;;;27.90;52.70;;;;;;4994825;28;20015;-86
2022/06/22 13:19:12;;;;;;;2.63;0.95;;;27.90;52.70;;;;;;5020393;28;20466;-86
2022/06/22 13:21:54;;;;;;;1.75;1.00;;;28.00;52.40;;;;;;4991164;28;20038;-86
2022/06/22 13:24:37;;;;;;;4.00;1.40;;;28.00;52.30;;;;;;4992275;28;20026;-87
2022/06/22 13:27:38;;;;;;;3.75;1.40;;;28.10;52.50;;;;;;4992381;28;20034;-86
2022/06/22 13:30:24;;;;;;;3.22;1.35;;;28.20;52.10;;;;;;4992922;28;20051;-86
2022/06/22 13:33:31;;;;;;;2.15;1.10;;;28.20;52.00;;;;;;4993517;28;20023;-86
2022/06/22 13:36:25;;;;;;;1.88;1.17;;;28.30;51.70;;;;;;4990210;28;20091;-86
2022/06/22 13:39:13;;;;;;;2.63;1.27;;;28.30;50.40;;;;;;5011270;28;20042;-85
2022/06/22 13:42:13;;;;;;;3.05;0.90;;;28.30;50.50;;;;;;4991863;28;20469;-85
2022/06/22 13:44:51;;;;;;;3.60;1.20;;;28.40;50.20;;;;;;4986714;28;20113;-85
2022/06/22 13:47:35;;;;;;;2.70;1.20;;;28.40;50.20;;;;;;4989915;28;20038;-88
2022/06/22 13:50:26;;;;;;;2.80;1.02;;;28.50;50.30;;;;;;4991405;28;20050;-85
2022/06/22 13:52:57;;;;;;;1.52;1.00;;;28.60;51.00;;;;;;4994322;28;20023;-85
2022/06/22 13:55:37;;;;;;;4.03;1.40;;;28.50;50.50;;;;;;4992428;28;20019;-83
2022/06/22 13:58:18;;;;;;;2.35;1.20;;;28.60;50.40;;;;;;5003617;28;20034;-86
2022/06/22 14:00:53;;;;;;;2.83;1.25;;;28.60;49.60;;;;;;5007552;28;20042;-84
2022/06/22 14:03:40;;;;;;;3.97;1.77;;;28.60;49.40;;;;;;4994800;28;20078;-85
2022/06/22 14:06:11;;;;;;;3.75;1.50;;;28.70;49.30;;;;;;4995014;28;20050;-85
2022/06/22 14:09:04;;;;;;;17.30;1.67;;;28.70;49.30;;;;;;4987259;28;20592;-85